sensor_id;sensor_type;location;lat;lon;timestamp;pressure;altitude;pressure_sealevel;temperature;humidity
3150;BME280;32503;47.748;8.960;2022-11-23T00:01:12;95642.97;;;6.95;68.18
3150;BME280;32503;47.748;8.960;2022-11-23T00:03:40;95670.88;;;7.10;68.22
3150;BME280;32503;47.748;8.960;2022-11-23T00:06:07;95608.44;;;6.70;67.85
3150;BME280;32503;47.748;8.960;2022-11-23T00:08:34;95662.31;;;7.04;68.85
3150;BME280;32503;47.748;8.960;2022-11-23T00:11:02;95667.38;;;7.09;68.70
3150;BME280;32503;47.748;8.960;2022-11-23T00:13:31;95668.19;;;7.10;68.23
3150;BME280;32503;47.748;8.960;2022-11-23T00:15:59;95663.97;;;7.12;68.70
3150;BME280;32503;47.748;8.960;2022-11-23T00:18:26;95661.72;;;7.14;68.12
3150;BME280;32503;47.748;8.960;2022-11-23T00:20:54;95661.34;;;7.16;68.50
3150;BME280;32503;47.748;8.960;2022-11-23T00:23:21;95664.09;;;7.19;68.94
3150;BME280;32503;47.748;8.960;2022-11-23T00:25:48;95669.94;;;7.25;68.66
3150;BME280;32503;47.748;8.960;2022-11-23T00:28:15;95668.84;;;7.30;68.72
3150;BME280;32503;47.748;8.960;2022-11-23T00:30:48;95662.75;;;7.33;68.60
3150;BME280;32503;47.748;8.960;2022-11-23T00:33:15;95663.88;;;7.32;68.37
3150;BME280;32503;47.748;8.960;2022-11-23T00:35:42;95653.53;;;7.34;68.65
3150;BME280;32503;47.748;8.960;2022-11-23T00:38:10;95650.03;;;7.30;68.47
3150;BME280;32503;47.748;8.960;2022-11-23T00:40:37;95654.28;;;7.31;68.67
3150;BME280;32503;47.748;8.960;2022-11-23T00:43:04;95654.28;;;7.31;68.57
3150;BME280;32503;47.748;8.960;2022-11-23T00:45:31;95652.72;;;7.30;68.26
3150;BME280;32503;47.748;8.960;2022-11-23T00:47:59;95656.97;;;7.31;68.69
3150;BME280;32503;47.748;8.960;2022-11-23T00:50:27;95661.97;;;7.32;68.18
3150;BME280;32503;47.748;8.960;2022-11-23T00:52:54;95668.56;;;7.35;67.98
3150;BME280;32503;47.748;8.960;2022-11-23T00:55:21;95665.41;;;7.29;68.33
3150;BME280;32503;47.748;8.960;2022-11-23T00:57:48;95656.44;;;7.21;69.14
3150;BME280;32503;47.748;8.960;2022-11-23T01:00:16;95657.19;;;7.18;68.55
3150;BME280;32503;47.748;8.960;2022-11-23T01:02:43;95657.19;;;7.18;68.80
3150;BME280;32503;47.748;8.960;2022-11-23T01:05:11;95666.38;;;7.17;69.35
3150;BME280;32503;47.748;8.960;2022-11-23T01:07:38;95664.03;;;7.16;68.56
3150;BME280;32503;47.748;8.960;2022-11-23T01:10:06;95667.88;;;7.15;68.99
3150;BME280;32503;47.748;8.960;2022-11-23T01:12:34;95663.97;;;7.12;68.61
3150;BME280;32503;47.748;8.960;2022-11-23T01:15:01;95668.94;;;7.10;68.80
3150;BME280;32503;47.748;8.960;2022-11-23T01:17:28;95667.88;;;7.15;68.85
3150;BME280;32503;47.748;8.960;2022-11-23T01:19:55;95663.28;;;7.15;68.67
3150;BME280;32503;47.748;8.960;2022-11-23T01:22:23;95661.72;;;7.14;68.24
3150;BME280;32503;47.748;8.960;2022-11-23T01:24:50;95644.97;;;6.98;68.79
3150;BME280;32503;47.748;8.960;2022-11-23T01:27:17;95660.84;;;7.07;68.71
3150;BME280;32503;47.748;8.960;2022-11-23T01:29:44;95661.50;;;7.00;68.95
3150;BME280;32503;47.748;8.960;2022-11-23T01:32:11;95652.19;;;6.94;69.34
3150;BME280;32503;47.748;8.960;2022-11-23T01:34:38;95669.13;;;6.98;69.61
3150;BME280;32503;47.748;8.960;2022-11-23T01:37:05;95662.19;;;6.97;69.68
3150;BME280;32503;47.748;8.960;2022-11-23T01:39:33;95663.00;;;6.97;68.60
3150;BME280;32503;47.748;8.960;2022-11-23T01:42:00;95664.88;;;6.97;68.65
3150;BME280;32503;47.748;8.960;2022-11-23T01:44:33;95669.13;;;6.98;69.42
3150;BME280;32503;47.748;8.960;2022-11-23T01:47:02;95663.00;;;6.97;68.51
3150;BME280;32503;47.748;8.960;2022-11-23T01:49:34;95677.25;;;7.01;68.61
3150;BME280;32503;47.748;8.960;2022-11-23T01:52:06;95665.31;;;6.99;69.52
3150;BME280;32503;47.748;8.960;2022-11-23T01:54:42;95667.56;;;6.97;68.79
3150;BME280;32503;47.748;8.960;2022-11-23T01:57:15;95672.91;;;6.93;69.70
3150;BME280;32503;47.748;8.960;2022-11-23T01:59:45;95671.31;;;6.89;69.08
3150;BME280;32503;47.748;8.960;2022-11-23T02:02:13;95675.56;;;6.93;68.93
3150;BME280;32503;47.748;8.960;2022-11-23T02:04:44;95672.41;;;6.88;69.74
3150;BME280;32503;47.748;8.960;2022-11-23T02:07:13;95668.19;;;6.87;69.82
3150;BME280;32503;47.748;8.960;2022-11-23T02:09:44;95671.59;;;6.83;70.21
3150;BME280;32503;47.748;8.960;2022-11-23T02:12:13;95670.03;;;6.82;69.20
3150;BME280;32503;47.748;8.960;2022-11-23T02:14:40;95672.72;;;6.82;69.67
3150;BME280;32503;47.748;8.960;2022-11-23T02:17:08;95669.63;;;6.80;69.91
3150;BME280;32503;47.748;8.960;2022-11-23T02:19:46;95668.09;;;6.79;69.53
3150;BME280;32503;47.748;8.960;2022-11-23T02:22:23;95671.78;;;6.71;69.33
3150;BME280;32503;47.748;8.960;2022-11-23T02:24:54;95671.13;;;6.78;69.55
3150;BME280;32503;47.748;8.960;2022-11-23T02:27:23;95670.31;;;6.77;69.73
3150;BME280;32503;47.748;8.960;2022-11-23T02:29:51;95668.09;;;6.79;69.66
3150;BME280;32503;47.748;8.960;2022-11-23T02:32:22;95671.91;;;6.78;69.64
3150;BME280;32503;47.748;8.960;2022-11-23T02:34:49;95664.13;;;6.73;69.25
3150;BME280;32503;47.748;8.960;2022-11-23T02:37:17;95677.84;;;6.68;69.97
3150;BME280;32503;47.748;8.960;2022-11-23T02:39:47;95681.75;;;6.71;69.73
3150;BME280;32503;47.748;8.960;2022-11-23T02:42:15;95672.06;;;6.66;69.51
3150;BME280;32503;47.748;8.960;2022-11-23T02:44:50;95677.09;;;6.68;69.77
3150;BME280;32503;47.748;8.960;2022-11-23T02:47:19;95675.53;;;6.67;69.83
3150;BME280;32503;47.748;8.960;2022-11-23T02:49:47;95677.44;;;6.66;69.54
3150;BME280;32503;47.748;8.960;2022-11-23T02:52:15;95669.69;;;6.61;69.59
3150;BME280;32503;47.748;8.960;2022-11-23T02:54:43;95674.75;;;6.66;69.78
3150;BME280;32503;47.748;8.960;2022-11-23T02:57:10;95671.25;;;6.62;69.80
3150;BME280;32503;47.748;8.960;2022-11-23T02:59:37;95670.09;;;6.63;69.30
3150;BME280;32503;47.748;8.960;2022-11-23T03:02:06;95675.41;;;6.59;70.14
3150;BME280;32503;47.748;8.960;2022-11-23T03:04:33;95662.31;;;6.58;70.10
3150;BME280;32503;47.748;8.960;2022-11-23T03:07:00;95672.00;;;6.62;70.23
3150;BME280;32503;47.748;8.960;2022-11-23T03:09:27;95616.47;;;6.24;69.92
3150;BME280;32503;47.748;8.960;2022-11-23T03:11:54;95672.34;;;6.61;70.09
3150;BME280;32503;47.748;8.960;2022-11-23T03:14:22;95667.00;;;6.61;70.50
3150;BME280;32503;47.748;8.960;2022-11-23T03:16:50;95676.97;;;6.60;69.85
3150;BME280;32503;47.748;8.960;2022-11-23T03:19:18;95670.78;;;6.60;69.86
3150;BME280;32503;47.748;8.960;2022-11-23T03:21:45;95663.88;;;6.59;69.76
3150;BME280;32503;47.748;8.960;2022-11-23T03:24:13;95669.13;;;6.52;70.35
3150;BME280;32503;47.748;8.960;2022-11-23T03:26:40;95672.88;;;6.47;70.11
3150;BME280;32503;47.748;8.960;2022-11-23T03:29:08;95667.56;;;6.51;70.19
3150;BME280;32503;47.748;8.960;2022-11-23T03:31:35;95664.75;;;6.43;70.66
3150;BME280;32503;47.748;8.960;2022-11-23T03:34:02;95655.34;;;6.30;71.02
3150;BME280;32503;47.748;8.960;2022-11-23T03:36:30;95662.31;;;6.35;71.46
3150;BME280;32503;47.748;8.960;2022-11-23T03:38:57;95662.31;;;6.35;71.30
3150;BME280;32503;47.748;8.960;2022-11-23T03:41:24;95661.25;;;6.39;70.40
3150;BME280;32503;47.748;8.960;2022-11-23T03:43:51;95658.97;;;6.41;71.04
3150;BME280;32503;47.748;8.960;2022-11-23T03:46:18;95657.47;;;6.44;70.20
3150;BME280;32503;47.748;8.960;2022-11-23T03:48:45;95647.41;;;6.37;69.93
3150;BME280;32503;47.748;8.960;2022-11-23T03:51:12;95646.97;;;6.35;69.95
3150;BME280;32503;47.748;8.960;2022-11-23T03:53:41;95648.19;;;6.38;70.76
3150;BME280;32503;47.748;8.960;2022-11-23T03:56:08;95649.66;;;6.35;70.22
3150;BME280;32503;47.748;8.960;2022-11-23T03:58:35;95648.81;;;6.31;70.23
3150;BME280;32503;47.748;8.960;2022-11-23T04:01:02;95652.19;;;6.28;70.65
3150;BME280;32503;47.748;8.960;2022-11-23T04:03:29;95652.53;;;6.23;70.62
3150;BME280;32503;47.748;8.960;2022-11-23T04:05:56;95655.91;;;6.20;69.79
3150;BME280;32503;47.748;8.960;2022-11-23T04:08:23;95638.16;;;6.15;70.01
3150;BME280;32503;47.748;8.960;2022-11-23T04:10:55;95645.25;;;6.04;70.97
3150;BME280;32503;47.748;8.960;2022-11-23T04:13:23;95641.34;;;6.01;70.26
3150;BME280;32503;47.748;8.960;2022-11-23T04:15:50;95643.88;;;5.94;70.87
3150;BME280;32503;47.748;8.960;2022-11-23T04:18:17;95641.81;;;5.87;70.48
3150;BME280;32503;47.748;8.960;2022-11-23T04:20:44;95644.16;;;5.89;70.92
3150;BME280;32503;47.748;8.960;2022-11-23T04:23:11;95644.56;;;5.91;71.13
3150;BME280;32503;47.748;8.960;2022-11-23T04:25:38;95597.16;;;5.56;70.64
3150;BME280;32503;47.748;8.960;2022-11-23T04:28:06;95645.78;;;5.94;70.01
3150;BME280;32503;47.748;8.960;2022-11-23T04:30:33;95640.44;;;5.94;70.46
3150;BME280;32503;47.748;8.960;2022-11-23T04:33:00;95644.16;;;5.89;70.74
3150;BME280;32503;47.748;8.960;2022-11-23T04:35:27;95641.41;;;5.85;70.38
3150;BME280;32503;47.748;8.960;2022-11-23T04:37:54;95649.72;;;5.80;70.01
3150;BME280;32503;47.748;8.960;2022-11-23T04:40:21;95644.81;;;5.82;69.80
3150;BME280;32503;47.748;8.960;2022-11-23T04:42:48;95640.50;;;5.78;69.94
3150;BME280;32503;47.748;8.960;2022-11-23T04:45:17;95639.47;;;5.66;70.32
3150;BME280;32503;47.748;8.960;2022-11-23T04:47:44;95632.09;;;5.60;70.38
3150;BME280;32503;47.748;8.960;2022-11-23T04:50:11;95630.59;;;5.62;70.60
3150;BME280;32503;47.748;8.960;2022-11-23T04:52:38;95633.97;;;5.59;69.89
3150;BME280;32503;47.748;8.960;2022-11-23T04:55:06;95633.91;;;5.56;70.40
3150;BME280;32503;47.748;8.960;2022-11-23T04:57:33;95641.03;;;5.48;70.63
3150;BME280;32503;47.748;8.960;2022-11-23T05:00:00;95630.56;;;5.43;69.70
3150;BME280;32503;47.748;8.960;2022-11-23T05:02:29;95631.00;;;5.45;70.33
3150;BME280;32503;47.748;8.960;2022-11-23T05:04:56;95632.06;;;5.40;70.03
3150;BME280;32503;47.748;8.960;2022-11-23T05:07:22;95635.03;;;5.35;70.43
3150;BME280;32503;47.748;8.960;2022-11-23T05:09:50;95628.44;;;5.32;70.30
3150;BME280;32503;47.748;8.960;2022-11-23T05:12:17;95622.22;;;5.28;69.99
3150;BME280;32503;47.748;8.960;2022-11-23T05:14:44;95613.47;;;5.12;70.56
3150;BME280;32503;47.748;8.960;2022-11-23T05:17:11;95629.34;;;5.21;70.14
3150;BME280;32503;47.748;8.960;2022-11-23T05:19:39;95628.81;;;5.15;70.33
3150;BME280;32503;47.748;8.960;2022-11-23T05:22:06;95633.34;;;5.11;70.44
3150;BME280;32503;47.748;8.960;2022-11-23T05:24:33;95625.97;;;5.08;70.40
3150;BME280;32503;47.748;8.960;2022-11-23T05:27:00;95619.34;;;5.02;70.53
3150;BME280;32503;47.748;8.960;2022-11-23T05:29:27;95622.97;;;4.93;70.75
3150;BME280;32503;47.748;8.960;2022-11-23T05:31:54;95607.34;;;4.80;71.04
3150;BME280;32503;47.748;8.960;2022-11-23T05:34:21;95613.50;;;4.80;70.96
3150;BME280;32503;47.748;8.960;2022-11-23T05:36:50;95618.59;;;4.85;70.85
3150;BME280;32503;47.748;8.960;2022-11-23T05:39:17;95618.31;;;4.90;71.10
3150;BME280;32503;47.748;8.960;2022-11-23T05:41:44;95620.16;;;4.86;70.66
3150;BME280;32503;47.748;8.960;2022-11-23T05:44:11;95622.56;;;4.75;70.67
3150;BME280;32503;47.748;8.960;2022-11-23T05:46:38;95626.00;;;4.76;70.71
3150;BME280;32503;47.748;8.960;2022-11-23T05:49:05;95629.28;;;4.69;70.79
3150;BME280;32503;47.748;8.960;2022-11-23T05:51:32;95631.03;;;4.62;71.11
3150;BME280;32503;47.748;8.960;2022-11-23T05:54:01;95628.59;;;4.56;71.17
3150;BME280;32503;47.748;8.960;2022-11-23T05:56:28;95624.72;;;4.54;71.08
3150;BME280;32503;47.748;8.960;2022-11-23T05:58:55;95634.22;;;4.51;71.25
3150;BME280;32503;47.748;8.960;2022-11-23T06:01:22;95632.69;;;4.50;71.63
3150;BME280;32503;47.748;8.960;2022-11-23T06:03:49;95636.03;;;4.47;71.32
3150;BME280;32503;47.748;8.960;2022-11-23T06:06:16;95634.03;;;4.44;71.51
3150;BME280;32503;47.748;8.960;2022-11-23T06:08:43;95630.84;;;4.39;71.68
3150;BME280;32503;47.748;8.960;2022-11-23T06:11:12;95641.88;;;4.37;71.65
3150;BME280;32503;47.748;8.960;2022-11-23T06:13:39;95646.13;;;4.38;71.56
3150;BME280;32503;47.748;8.960;2022-11-23T06:16:06;95640.97;;;4.45;71.18
3150;BME280;32503;47.748;8.960;2022-11-23T06:18:34;95633.94;;;4.41;71.09
3150;BME280;32503;47.748;8.960;2022-11-23T06:21:01;95638.28;;;4.45;70.79
3150;BME280;32503;47.748;8.960;2022-11-23T06:23:28;95629.81;;;4.43;70.68
3150;BME280;32503;47.748;8.960;2022-11-23T06:25:58;95632.94;;;4.45;70.58
3150;BME280;32503;47.748;8.960;2022-11-23T06:28:27;95630.50;;;4.40;70.67
3150;BME280;32503;47.748;8.960;2022-11-23T06:30:54;95633.53;;;4.39;70.62
3150;BME280;32503;47.748;8.960;2022-11-23T06:33:22;95628.25;;;4.42;70.47
3150;BME280;32503;47.748;8.960;2022-11-23T06:35:53;95636.03;;;4.47;70.15
3150;BME280;32503;47.748;8.960;2022-11-23T06:38:21;95623.25;;;4.41;69.92
3150;BME280;32503;47.748;8.960;2022-11-23T06:40:48;95630.94;;;4.42;69.82
3150;BME280;32503;47.748;8.960;2022-11-23T06:43:15;95627.41;;;4.38;70.15
3150;BME280;32503;47.748;8.960;2022-11-23T06:45:43;95626.00;;;4.28;70.27
3150;BME280;32503;47.748;8.960;2022-11-23T06:48:10;95629.19;;;4.34;70.71
3150;BME280;32503;47.748;8.960;2022-11-23T06:50:38;95640.06;;;4.41;70.89
3150;BME280;32503;47.748;8.960;2022-11-23T06:53:05;95640.63;;;4.63;70.90
3150;BME280;32503;47.748;8.960;2022-11-23T06:55:32;95644.06;;;4.95;70.40
3150;BME280;32503;47.748;8.960;2022-11-23T06:57:59;95645.25;;;5.29;69.75
3150;BME280;32503;47.748;8.960;2022-11-23T07:00:26;95654.72;;;5.62;68.93
3150;BME280;32503;47.748;8.960;2022-11-23T07:02:55;95648.69;;;5.85;67.31
3150;BME280;32503;47.748;8.960;2022-11-23T07:05:23;95636.63;;;6.14;66.68
3150;BME280;32503;47.748;8.960;2022-11-23T07:07:50;95662.19;;;6.97;65.35
3150;BME280;32503;47.748;8.960;2022-11-23T07:10:18;95665.06;;;7.91;63.48
3150;BME280;32503;47.748;8.960;2022-11-23T07:12:45;95670.19;;;8.71;59.99
3150;BME280;32503;47.748;8.960;2022-11-23T07:15:13;95670.50;;;9.63;57.14
3150;BME280;32503;47.748;8.960;2022-11-23T07:17:40;95668.19;;;10.46;54.80
3150;BME280;32503;47.748;8.960;2022-11-23T07:20:11;95670.97;;;11.35;52.16
3150;BME280;32503;47.748;8.960;2022-11-23T07:22:38;95669.69;;;12.01;49.96
3150;BME280;32503;47.748;8.960;2022-11-23T07:25:06;95676.34;;;12.67;48.40
3150;BME280;32503;47.748;8.960;2022-11-23T07:27:33;95677.72;;;12.97;46.02
3150;BME280;32503;47.748;8.960;2022-11-23T07:30:00;95676.66;;;13.36;45.55
3150;BME280;32503;47.748;8.960;2022-11-23T07:32:28;95675.56;;;13.75;44.52
3150;BME280;32503;47.748;8.960;2022-11-23T07:34:55;95677.16;;;14.07;43.89
3150;BME280;32503;47.748;8.960;2022-11-23T07:37:23;95670.47;;;14.46;43.02
3150;BME280;32503;47.748;8.960;2022-11-23T07:39:50;95670.03;;;15.05;42.02
3150;BME280;32503;47.748;8.960;2022-11-23T07:42:18;95663.94;;;15.68;40.72
3150;BME280;32503;47.748;8.960;2022-11-23T07:44:45;95668.47;;;16.39;39.32
3150;BME280;32503;47.748;8.960;2022-11-23T07:47:12;95669.75;;;17.07;37.89
3150;BME280;32503;47.748;8.960;2022-11-23T07:49:39;95678.69;;;17.57;36.53
3150;BME280;32503;47.748;8.960;2022-11-23T07:52:06;95679.03;;;18.05;35.56
3150;BME280;32503;47.748;8.960;2022-11-23T07:54:35;95684.31;;;18.41;34.80
3150;BME280;32503;47.748;8.960;2022-11-23T07:57:02;95688.22;;;18.95;34.09
3150;BME280;32503;47.748;8.960;2022-11-23T07:59:29;95687.75;;;19.61;33.04
3150;BME280;32503;47.748;8.960;2022-11-23T08:01:56;95688.25;;;19.68;32.24
3150;BME280;32503;47.748;8.960;2022-11-23T08:04:23;95688.56;;;19.83;32.03
3150;BME280;32503;47.748;8.960;2022-11-23T08:06:52;95677.13;;;20.42;31.71
3150;BME280;32503;47.748;8.960;2022-11-23T08:09:19;95670.25;;;21.00;30.72
3150;BME280;32503;47.748;8.960;2022-11-23T08:11:48;95670.09;;;21.44;29.58
3150;BME280;32503;47.748;8.960;2022-11-23T08:14:15;95662.38;;;21.98;28.90
3150;BME280;32503;47.748;8.960;2022-11-23T08:16:42;95670.03;;;21.94;28.45
3150;BME280;32503;47.748;8.960;2022-11-23T08:19:09;95675.28;;;21.42;28.86
3150;BME280;32503;47.748;8.960;2022-11-23T08:21:36;95673.47;;;21.39;29.33
3150;BME280;32503;47.748;8.960;2022-11-23T08:24:04;95669.72;;;20.74;30.16
3150;BME280;32503;47.748;8.960;2022-11-23T08:26:32;95672.25;;;20.68;30.49
3150;BME280;32503;47.748;8.960;2022-11-23T08:29:00;95674.69;;;20.22;31.15
3150;BME280;32503;47.748;8.960;2022-11-23T08:31:27;95669.94;;;19.78;31.68
3150;BME280;32503;47.748;8.960;2022-11-23T08:33:54;95666.19;;;19.24;32.26
3150;BME280;32503;47.748;8.960;2022-11-23T08:36:22;95663.88;;;18.71;33.63
3150;BME280;32503;47.748;8.960;2022-11-23T08:38:49;95663.16;;;18.29;34.48
3150;BME280;32503;47.748;8.960;2022-11-23T08:41:17;95663.34;;;17.47;35.48
3150;BME280;32503;47.748;8.960;2022-11-23T08:43:45;95666.09;;;17.14;36.77
3150;BME280;32503;47.748;8.960;2022-11-23T08:46:14;95662.53;;;16.80;37.59
3150;BME280;32503;47.748;8.960;2022-11-23T08:48:42;95661.47;;;16.58;38.08
3150;BME280;32503;47.748;8.960;2022-11-23T08:51:09;95669.53;;;16.45;38.99
3150;BME280;32503;47.748;8.960;2022-11-23T08:53:36;95668.63;;;16.32;39.05
3150;BME280;32503;47.748;8.960;2022-11-23T08:56:06;95665.63;;;16.26;39.58
3150;BME280;32503;47.748;8.960;2022-11-23T08:58:33;95662.47;;;16.27;39.80
3150;BME280;32503;47.748;8.960;2022-11-23T09:01:01;95662.13;;;16.25;39.92
3150;BME280;32503;47.748;8.960;2022-11-23T09:03:34;95663.88;;;16.16;39.69
3150;BME280;32503;47.748;8.960;2022-11-23T09:06:01;95664.00;;;16.08;39.89
3150;BME280;32503;47.748;8.960;2022-11-23T09:08:28;95655.84;;;16.08;40.54
3150;BME280;32503;47.748;8.960;2022-11-23T09:10:59;95659.97;;;16.17;40.51
3150;BME280;32503;47.748;8.960;2022-11-23T09:13:27;95649.00;;;16.20;40.17
3150;BME280;32503;47.748;8.960;2022-11-23T09:15:57;95655.28;;;16.17;40.31
3150;BME280;32503;47.748;8.960;2022-11-23T09:18:24;95652.81;;;16.23;40.68
3150;BME280;32503;47.748;8.960;2022-11-23T09:20:53;95653.59;;;16.23;40.29
3150;BME280;32503;47.748;8.960;2022-11-23T09:23:20;95654.50;;;16.17;40.71
3150;BME280;32503;47.748;8.960;2022-11-23T09:25:47;95649.28;;;16.06;40.85
3150;BME280;32503;47.748;8.960;2022-11-23T09:28:15;95655.56;;;16.03;41.18
3150;BME280;32503;47.748;8.960;2022-11-23T09:30:44;95655.16;;;16.04;41.19
3150;BME280;32503;47.748;8.960;2022-11-23T09:33:11;95658.28;;;16.03;41.43
3150;BME280;32503;47.748;8.960;2022-11-23T09:35:38;95664.56;;;16.00;40.97
3150;BME280;32503;47.748;8.960;2022-11-23T09:38:07;95670.28;;;16.05;41.54
3150;BME280;32503;47.748;8.960;2022-11-23T09:40:38;95678.97;;;16.20;41.98
3150;BME280;32503;47.748;8.960;2022-11-23T09:43:28;95676.22;;;16.40;41.51
3150;BME280;32503;47.748;8.960;2022-11-23T09:46:05;95671.19;;;16.39;41.38
3150;BME280;32503;47.748;8.960;2022-11-23T09:48:50;95667.16;;;16.07;39.99
3150;BME280;32503;47.748;8.960;2022-11-23T09:51:22;95665.31;;;15.80;41.57
3150;BME280;32503;47.748;8.960;2022-11-23T09:53:53;95667.16;;;15.87;42.83
3150;BME280;32503;47.748;8.960;2022-11-23T09:56:24;95671.47;;;15.84;41.89
3150;BME280;32503;47.748;8.960;2022-11-23T09:58:55;95654.97;;;15.91;42.72
3150;BME280;32503;47.748;8.960;2022-11-23T10:01:24;95652.41;;;16.04;42.26
3150;BME280;32503;47.748;8.960;2022-11-23T10:03:52;95660.88;;;16.10;41.65
3150;BME280;32503;47.748;8.960;2022-11-23T10:06:22;95657.84;;;16.24;41.75
3150;BME280;32503;47.748;8.960;2022-11-23T10:09:01;95663.66;;;16.26;41.60
3150;BME280;32503;47.748;8.960;2022-11-23T10:11:54;95664.28;;;16.14;41.23
3150;BME280;32503;47.748;8.960;2022-11-23T10:14:44;95664.84;;;16.25;41.58
3150;BME280;32503;47.748;8.960;2022-11-23T10:17:25;95660.22;;;16.02;41.33
3150;BME280;32503;47.748;8.960;2022-11-23T10:20:16;95659.38;;;16.05;42.03
3150;BME280;32503;47.748;8.960;2022-11-23T10:22:51;95649.31;;;16.02;42.28
3150;BME280;32503;47.748;8.960;2022-11-23T10:25:24;95661.56;;;16.14;41.79
3150;BME280;32503;47.748;8.960;2022-11-23T10:27:59;95658.91;;;16.10;41.37
3150;BME280;32503;47.748;8.960;2022-11-23T10:30:27;95650.03;;;16.06;40.82
3150;BME280;32503;47.748;8.960;2022-11-23T10:32:59;95654.00;;;16.02;42.41
3150;BME280;32503;47.748;8.960;2022-11-23T10:35:31;95641.88;;;16.06;41.83
3150;BME280;32503;47.748;8.960;2022-11-23T10:38:10;95651.50;;;16.11;41.83
3150;BME280;32503;47.748;8.960;2022-11-23T10:40:44;95652.06;;;16.22;41.77
3150;BME280;32503;47.748;8.960;2022-11-23T10:43:19;95655.06;;;16.28;42.07
3150;BME280;32503;47.748;8.960;2022-11-23T10:45:48;95653.81;;;16.33;41.48
3150;BME280;32503;47.748;8.960;2022-11-23T10:48:33;95644.22;;;16.24;40.63
3150;BME280;32503;47.748;8.960;2022-11-23T10:51:15;95648.28;;;16.16;40.41
3150;BME280;32503;47.748;8.960;2022-11-23T10:53:43;95646.47;;;16.29;40.12
3150;BME280;32503;47.748;8.960;2022-11-23T10:56:13;95643.53;;;15.80;40.05
3150;BME280;32503;47.748;8.960;2022-11-23T10:58:43;95638.13;;;15.77;41.48
3150;BME280;32503;47.748;8.960;2022-11-23T11:01:14;95634.88;;;15.85;41.78
3150;BME280;32503;47.748;8.960;2022-11-23T11:03:42;95640.19;;;15.92;41.27
3150;BME280;32503;47.748;8.960;2022-11-23T11:06:09;95632.69;;;15.97;39.94
3150;BME280;32503;47.748;8.960;2022-11-23T11:08:49;95626.28;;;15.87;40.32
3150;BME280;32503;47.748;8.960;2022-11-23T11:11:25;95624.31;;;15.87;40.45
3150;BME280;32503;47.748;8.960;2022-11-23T11:14:03;95623.75;;;15.96;41.56
3150;BME280;32503;47.748;8.960;2022-11-23T11:16:33;95623.13;;;16.08;41.03
3150;BME280;32503;47.748;8.960;2022-11-23T11:19:21;95629.56;;;15.98;40.71
3150;BME280;32503;47.748;8.960;2022-11-23T11:21:51;95622.78;;;16.06;40.95
3150;BME280;32503;47.748;8.960;2022-11-23T11:24:22;95613.19;;;16.18;40.97
3150;BME280;32503;47.748;8.960;2022-11-23T11:26:58;95606.69;;;16.12;41.23
3150;BME280;32503;47.748;8.960;2022-11-23T11:29:31;95608.16;;;15.33;41.49
3150;BME280;32503;47.748;8.960;2022-11-23T11:32:02;95600.81;;;15.30;41.07
3150;BME280;32503;47.748;8.960;2022-11-23T11:34:45;95610.75;;;15.40;41.90
3150;BME280;32503;47.748;8.960;2022-11-23T11:37:23;95609.84;;;15.47;42.25
3150;BME280;32503;47.748;8.960;2022-11-23T11:40:05;95612.53;;;15.27;41.76
3150;BME280;32503;47.748;8.960;2022-11-23T11:42:39;95612.88;;;15.05;42.43
3150;BME280;32503;47.748;8.960;2022-11-23T11:45:15;95605.25;;;15.20;43.12
3150;BME280;32503;47.748;8.960;2022-11-23T11:47:49;95596.38;;;15.40;42.77
3150;BME280;32503;47.748;8.960;2022-11-23T11:50:22;95596.38;;;15.60;41.25
3150;BME280;32503;47.748;8.960;2022-11-23T11:52:58;95595.22;;;15.61;41.61
3150;BME280;32503;47.748;8.960;2022-11-23T11:55:29;95590.38;;;15.48;41.61
3150;BME280;32503;47.748;8.960;2022-11-23T11:58:04;95591.97;;;15.46;41.68
3150;BME280;32503;47.748;8.960;2022-11-23T12:00:37;95587.09;;;15.37;41.77
3150;BME280;32503;47.748;8.960;2022-11-23T12:03:15;95570.84;;;15.30;42.33
3150;BME280;32503;47.748;8.960;2022-11-23T12:05:48;95574.56;;;14.96;42.54
3150;BME280;32503;47.748;8.960;2022-11-23T12:08:20;95577.44;;;14.85;43.37
3150;BME280;32503;47.748;8.960;2022-11-23T12:10:51;95568.34;;;14.72;43.61
3150;BME280;32503;47.748;8.960;2022-11-23T12:13:21;95562.78;;;14.79;43.90
3150;BME280;32503;47.748;8.960;2022-11-23T12:15:55;95557.09;;;14.43;43.52
3150;BME280;32503;47.748;8.960;2022-11-23T12:19:04;95563.84;;;14.03;43.80
3150;BME280;32503;47.748;8.960;2022-11-23T12:22:04;95554.13;;;14.02;44.57
3150;BME280;32503;47.748;8.960;2022-11-23T12:24:53;95563.13;;;13.99;44.46
3150;BME280;32503;47.748;8.960;2022-11-23T12:27:30;95557.13;;;13.81;45.38
3150;BME280;32503;47.748;8.960;2022-11-23T12:30:17;95561.88;;;13.73;45.29
3150;BME280;32503;47.748;8.960;2022-11-23T12:33:28;95561.84;;;13.77;45.26
3150;BME280;32503;47.748;8.960;2022-11-23T12:36:11;95551.88;;;13.67;45.82
3150;BME280;32503;47.748;8.960;2022-11-23T12:38:51;95557.03;;;13.57;45.68
3150;BME280;32503;47.748;8.960;2022-11-23T12:41:23;95560.50;;;13.58;45.90
3150;BME280;32503;47.748;8.960;2022-11-23T12:44:41;95556.00;;;13.44;45.81
3150;BME280;32503;47.748;8.960;2022-11-23T12:47:26;95558.19;;;13.56;46.31
3150;BME280;32503;47.748;8.960;2022-11-23T12:50:08;95544.03;;;13.72;45.95
3150;BME280;32503;47.748;8.960;2022-11-23T12:52:56;95546.94;;;13.89;45.22
3150;BME280;32503;47.748;8.960;2022-11-23T12:55:34;95551.88;;;13.67;44.52
3150;BME280;32503;47.748;8.960;2022-11-23T12:58:08;95558.78;;;12.92;46.38
3150;BME280;32503;47.748;8.960;2022-11-23T13:00:38;95551.72;;;13.05;46.27
3150;BME280;32503;47.748;8.960;2022-11-23T13:10:20;95553.66;;;13.46;54.92
3150;BME280;32503;47.748;8.960;2022-11-23T13:13:07;95553.78;;;14.00;49.44
3150;BME280;32503;47.748;8.960;2022-11-23T13:19:19;95533.59;;;14.56;44.91
3150;BME280;32503;47.748;8.960;2022-11-23T13:21:52;95544.50;;;14.52;43.37
3150;BME280;32503;47.748;8.960;2022-11-23T13:24:28;95541.69;;;13.74;43.71
3150;BME280;32503;47.748;8.960;2022-11-23T13:27:40;95537.88;;;13.34;44.96
3150;BME280;32503;47.748;8.960;2022-11-23T13:30:31;95524.50;;;13.12;45.07
3150;BME280;32503;47.748;8.960;2022-11-23T13:33:24;95535.94;;;12.93;45.93
3150;BME280;32503;47.748;8.960;2022-11-23T13:35:59;95515.63;;;12.66;45.82
3150;BME280;32503;47.748;8.960;2022-11-23T13:38:42;95522.69;;;12.57;45.81
3150;BME280;32503;47.748;8.960;2022-11-23T13:41:56;95526.72;;;12.34;46.23
3150;BME280;32503;47.748;8.960;2022-11-23T13:44:28;95525.16;;;12.37;46.50
3150;BME280;32503;47.748;8.960;2022-11-23T13:47:01;95523.22;;;12.37;46.41